Time;durP1;ratioP1;P1;durP2;ratioP2;P2;SDS_P1;SDS_P2;PMS_P1;PMS_P2;Temp;Humidity;BMP_temperature;BMP_pressure;BME280_temperature;BME280_humidity;BME280_pressure;Samples;Min_cycle;Max_cycle;Signal;HPM_P1;HPM_P2
2022/11/03 00:01:37;;;;;;;1.52;0.80;;;;;;;23.88;42.31;99671.88;5150394;27;20070;-66
2022/11/03 00:04:07;;;;;;;1.58;0.82;;;;;;;23.89;42.40;99667.09;5149836;27;20057;-63
2022/11/03 00:06:33;;;;;;;1.02;0.80;;;;;;;23.86;42.18;99665.06;5149402;27;20042;-66
2022/11/03 00:09:00;;;;;;;1.40;0.70;;;;;;;23.87;42.35;99663.88;5150511;27;20403;-66
2022/11/03 00:11:26;;;;;;;1.00;0.70;;;;;;;23.88;42.23;99666.28;5118496;27;20171;-66
2022/11/03 00:13:52;;;;;;;0.82;0.70;;;;;;;23.87;42.26;99666.69;5137154;27;20582;-62
2022/11/03 00:16:17;;;;;;;1.13;0.85;;;;;;;23.86;42.02;99656.66;5129111;28;20062;-62
2022/11/03 00:18:42;;;;;;;1.00;0.70;;;;;;;23.83;42.08;99658.25;5129520;27;20423;-65
2022/11/03 00:21:11;;;;;;;1.00;0.70;;;;;;;23.85;42.24;99661.47;5129727;27;20075;-66
2022/11/03 00:23:39;;;;;;;0.70;0.60;;;;;;;23.87;42.17;99663.88;5129419;27;20051;-63
2022/11/03 00:26:10;;;;;;;1.00;0.70;;;;;;;23.84;42.40;99661.84;5123727;27;20048;-64
2022/11/03 00:28:36;;;;;;;1.30;0.90;;;;;;;23.87;41.99;99661.91;5128903;27;20043;-66
2022/11/03 00:31:14;;;;;;;1.10;0.70;;;;;;;23.85;41.94;99667.03;5129519;28;20130;-64
2022/11/03 00:33:41;;;;;;;1.33;0.82;;;;;;;23.85;42.07;99655.06;5117225;27;20043;-63
2022/11/03 00:36:11;;;;;;;0.80;0.60;;;;;;;23.85;42.11;99652.28;5129583;27;20035;-67
2022/11/03 00:38:36;;;;;;;1.10;0.80;;;;;;;23.76;42.21;99637.88;5128856;27;20062;-61
2022/11/03 00:41:03;;;;;;;1.45;0.70;;;;;;;23.84;42.20;99647.88;5127254;27;20039;-61
2022/11/03 00:43:31;;;;;;;0.90;0.70;;;;;;;23.82;42.03;99645.50;5125623;27;20491;-62
2022/11/03 00:45:57;;;;;;;0.95;0.70;;;;;;;23.84;42.04;99642.31;5107644;27;20039;-66
2022/11/03 00:48:28;;;;;;;0.93;0.68;;;;;;;23.85;42.07;99632.72;5130816;27;20035;-62
2022/11/03 00:50:58;;;;;;;0.88;0.70;;;;;;;23.86;41.88;99637.13;5116585;28;20035;-66
2022/11/03 00:53:23;;;;;;;0.73;0.60;;;;;;;23.86;41.89;99634.31;5113173;27;20127;-66
2022/11/03 00:55:49;;;;;;;1.25;0.70;;;;;;;23.82;41.78;99620.34;5133447;28;20138;-63
2022/11/03 00:58:14;;;;;;;0.85;0.70;;;;;;;23.81;41.82;99621.53;5119577;27;20093;-65
2022/11/03 01:00:39;;;;;;;0.95;0.70;;;;;;;23.81;42.03;99627.13;5131613;27;20088;-64
2022/11/03 01:03:05;;;;;;;1.00;0.60;;;;;;;23.81;41.78;99618.75;5131877;27;20495;-66
2022/11/03 01:08:15;;;;;;;1.13;0.73;;;;;;;23.81;41.76;99606.78;5117316;28;20116;-62
2022/11/03 01:11:42;;;;;;;1.92;0.88;;;;;;;23.84;41.91;99603.19;5130852;27;20127;-63
2022/11/03 01:13:25;;;;;;;1.20;0.70;;;;;;;23.83;41.76;99601.59;5130313;27;20086;-62
2022/11/03 01:15:51;;;;;;;0.70;0.60;;;;;;;23.85;41.73;99604.78;5130858;27;20086;-66
2022/11/03 01:18:16;;;;;;;1.20;0.60;;;;;;;23.82;41.69;99603.59;5131432;27;20603;-65
2022/11/03 01:20:41;;;;;;;1.10;0.70;;;;;;;23.82;41.90;99591.63;5130803;27;20035;-67
2022/11/03 01:23:07;;;;;;;1.15;0.70;;;;;;;23.82;41.70;99605.59;5128198;27;20039;-66
2022/11/03 01:25:34;;;;;;;1.27;0.80;;;;;;;23.83;41.66;99599.59;5125172;27;20130;-65
2022/11/03 01:28:01;;;;;;;0.82;0.65;;;;;;;23.81;41.88;99596.41;5125705;27;20039;-65
2022/11/03 01:30:26;;;;;;;0.95;0.65;;;;;;;23.80;41.56;99602.38;5124702;28;20031;-66
2022/11/03 01:32:52;;;;;;;0.77;0.60;;;;;;;23.79;41.63;99603.56;5131739;27;20047;-63
2022/11/03 01:35:17;;;;;;;0.93;0.70;;;;;;;23.79;41.80;99593.22;5128408;27;20039;-66
2022/11/03 01:37:42;;;;;;;0.77;0.57;;;;;;;23.77;41.66;99587.19;5125433;27;20040;-62
2022/11/03 01:40:09;;;;;;;0.50;0.50;;;;;;;23.78;41.70;99590.78;5114235;27;20199;-66
2022/11/03 01:42:34;;;;;;;0.70;0.60;;;;;;;23.79;41.58;99592.38;5131320;27;20035;-62
2022/11/03 01:44:59;;;;;;;1.08;0.70;;;;;;;23.77;41.75;99592.78;5130205;27;20404;-66
2022/11/03 01:47:35;;;;;;;1.15;0.80;;;;;;;23.84;41.51;99598.41;5129991;27;20047;-67
2022/11/03 01:50:07;;;;;;;1.10;0.70;;;;;;;23.96;41.51;99586.09;5130356;27;20192;-62
2022/11/03 01:52:35;;;;;;;1.13;0.70;;;;;;;24.07;41.02;99586.94;5122942;27;20032;-62
2022/11/03 01:55:06;;;;;;;1.27;0.80;;;;;;;24.07;40.90;99584.13;5129933;27;20047;-66
2022/11/03 01:57:47;;;;;;;1.10;0.80;;;;;;;24.04;41.04;99586.94;5113011;28;20047;-66
2022/11/03 02:00:13;;;;;;;1.17;0.73;;;;;;;24.00;41.15;99578.53;5129373;27;20035;-63
2022/11/03 02:02:39;;;;;;;1.15;0.73;;;;;;;23.98;41.06;99578.13;5130661;27;20044;-63
2022/11/03 02:05:06;;;;;;;1.17;0.80;;;;;;;23.94;41.32;99568.13;5124469;27;20042;-65
2022/11/03 02:07:59;;;;;;;1.75;0.75;;;;;;;23.90;41.13;99562.53;5117801;27;20138;-66
2022/11/03 02:10:25;;;;;;;1.27;0.80;;;;;;;23.87;41.20;99568.91;5048441;28;20061;-63
2022/11/03 02:12:51;;;;;;;1.20;0.88;;;;;;;23.86;41.29;99567.28;5060938;28;20397;-66
2022/11/03 02:15:20;;;;;;;1.02;0.70;;;;;;;23.84;41.27;99558.50;5044794;28;20592;-62
2022/11/03 02:17:48;;;;;;;1.10;0.70;;;;;;;23.82;41.38;99558.91;5042136;28;20072;-66
2022/11/03 02:20:28;;;;;;;1.23;0.70;;;;;;;23.82;41.19;99558.09;5047453;28;20092;-63
2022/11/03 02:23:19;;;;;;;1.02;0.70;;;;;;;23.83;41.22;99551.31;5040219;28;20429;-62
2022/11/03 02:25:54;;;;;;;1.15;0.70;;;;;;;23.81;41.12;99542.53;5034402;28;20078;-66
2022/11/03 02:28:23;;;;;;;1.30;0.70;;;;;;;23.80;41.46;99526.97;5044486;28;20434;-62
2022/11/03 02:30:59;;;;;;;1.35;0.80;;;;;;;23.79;41.28;99528.97;5044523;28;20049;-62
2022/11/03 02:34:00;;;;;;;0.85;0.65;;;;;;;23.80;41.39;99521.38;5037958;28;20080;-62
2022/11/03 02:36:41;;;;;;;1.23;0.80;;;;;;;23.79;41.16;99522.56;4947193;28;20086;-67
2022/11/03 02:39:30;;;;;;;1.80;1.00;;;;;;;23.78;41.28;99518.16;4945993;28;20073;-63
2022/11/03 02:41:59;;;;;;;1.13;0.73;;;;;;;23.74;41.21;99512.56;4951752;28;20058;-66
2022/11/03 02:44:27;;;;;;;1.00;0.73;;;;;;;23.78;41.21;99509.78;4950208;28;20047;-63
2022/11/03 02:47:00;;;;;;;0.93;0.73;;;;;;;23.75;41.12;99510.59;4975391;28;20141;-63
2022/11/03 02:49:26;;;;;;;0.88;0.60;;;;;;;23.75;41.34;99505.00;5011534;28;20589;-66
2022/11/03 02:52:00;;;;;;;0.80;0.60;;;;;;;23.74;41.09;99498.63;5006702;28;20042;-66
2022/11/03 02:54:33;;;;;;;2.67;1.02;;;;;;;23.75;41.19;99493.81;5015297;28;20145;-66
2022/11/03 02:57:04;;;;;;;1.13;0.77;;;;;;;23.73;41.10;99494.22;5005355;28;20108;-67
2022/11/03 02:59:42;;;;;;;0.88;0.70;;;;;;;23.73;41.16;99479.47;5009220;28;20042;-65
2022/11/03 03:02:12;;;;;;;1.25;0.70;;;;;;;23.76;41.22;99487.03;5011314;28;20148;-61
2022/11/03 03:04:47;;;;;;;1.10;0.73;;;;;;;23.75;41.21;99471.47;5018225;28;20403;-64
2022/11/03 03:07:19;;;;;;;0.68;0.50;;;;;;;23.75;41.06;99463.91;5020496;28;20053;-66
2022/11/03 03:10:01;;;;;;;1.33;0.85;;;;;;;23.75;41.16;99461.09;5007941;28;20054;-66
2022/11/03 03:12:29;;;;;;;1.50;0.80;;;;;;;23.76;41.06;99459.13;5083707;28;20103;-63
2022/11/03 03:14:57;;;;;;;0.77;0.60;;;;;;;23.74;41.12;99458.72;5119193;27;20546;-63
2022/11/03 03:17:52;;;;;;;1.33;0.70;;;;;;;23.74;41.15;99470.69;5126498;28;20488;-66
2022/11/03 03:20:26;;;;;;;1.20;0.60;;;;;;;23.75;41.09;99460.31;5116273;27;20423;-66
2022/11/03 03:22:57;;;;;;;0.85;0.68;;;;;;;23.77;41.14;99452.31;5123533;27;20039;-63
2022/11/03 03:25:25;;;;;;;1.00;0.70;;;;;;;23.81;41.11;99447.56;5128369;28;20051;-63
2022/11/03 03:27:58;;;;;;;1.48;0.90;;;;;;;23.82;41.04;99443.56;5129495;27;20122;-62
2022/11/03 03:30:23;;;;;;;1.17;0.70;;;;;;;23.87;40.87;99446.78;5125354;27;20449;-62
2022/11/03 03:32:51;;;;;;;1.13;0.80;;;;;;;23.93;40.82;99449.19;5128736;27;20628;-65
2022/11/03 03:35:22;;;;;;;0.90;0.60;;;;;;;23.97;41.05;99452.78;5120823;28;20079;-66
2022/11/03 03:37:53;;;;;;;0.75;0.60;;;;;;;24.01;40.98;99443.22;5120800;27;20050;-62
2022/11/03 03:40:25;;;;;;;0.63;0.60;;;;;;;24.03;40.94;99440.84;5127339;28;20036;-62
2022/11/03 03:42:51;;;;;;;0.75;0.60;;;;;;;24.05;40.88;99432.06;5129369;27;20035;-66
2022/11/03 03:45:18;;;;;;;0.85;0.70;;;;;;;24.08;40.81;99431.28;5129665;27;20047;-62
2022/11/03 03:47:45;;;;;;;0.75;0.63;;;;;;;24.11;40.76;99434.06;5127805;27;20051;-62
2022/11/03 03:50:10;;;;;;;0.77;0.52;;;;;;;24.12;40.58;99435.66;5111169;27;20054;-65
2022/11/03 03:52:36;;;;;;;0.68;0.50;;;;;;;24.14;40.64;99438.84;5127083;27;20031;-65
2022/11/03 03:55:03;;;;;;;0.93;0.63;;;;;;;24.16;40.58;99438.47;5130508;27;20460;-65
2022/11/03 03:57:30;;;;;;;0.93;0.65;;;;;;;24.18;40.54;99433.28;5117119;28;20128;-65
2022/11/03 03:59:56;;;;;;;1.35;0.73;;;;;;;24.21;40.64;99429.66;5128002;27;20462;-61
2022/11/03 04:02:21;;;;;;;0.57;0.50;;;;;;;24.20;40.53;99416.09;5129820;27;20575;-66
2022/11/03 04:04:47;;;;;;;0.85;0.52;;;;;;;24.23;40.63;99418.13;5120952;27;20035;-64
2022/11/03 04:09:56;;;;;;;0.47;0.40;;;;;;;24.24;40.39;99422.50;5121792;27;20117;-62
2022/11/03 04:23:21;;;;;;;1.30;0.60;;;;;;;24.27;40.44;99428.09;5124165;27;20103;-62
2022/11/03 04:25:49;;;;;;;0.68;0.57;;;;;;;24.27;40.55;99427.28;5129414;27;20043;-65
2022/11/03 04:28:14;;;;;;;1.10;0.60;;;;;;;24.27;40.58;99424.50;5129662;28;20519;-62
2022/11/03 04:30:40;;;;;;;0.65;0.50;;;;;;;24.29;40.39;99431.31;5129773;27;20095;-63
2022/11/03 04:33:13;;;;;;;1.00;0.60;;;;;;;24.30;40.37;99429.31;5129007;27;20095;-67
2022/11/03 04:35:39;;;;;;;0.77;0.60;;;;;;;24.28;40.44;99417.69;5106226;27;20047;-63
2022/11/03 04:38:20;;;;;;;1.00;0.57;;;;;;;24.31;40.43;99419.72;5120949;28;20031;-67
2022/11/03 04:41:11;;;;;;;1.05;0.60;;;;;;;24.31;40.34;99420.50;5121172;27;20055;-63
2022/11/03 04:43:37;;;;;;;0.80;0.60;;;;;;;24.32;40.19;99418.50;5100314;28;20043;-63
2022/11/03 04:46:04;;;;;;;0.93;0.60;;;;;;;24.30;40.12;99410.53;5128608;27;20050;-66
2022/11/03 04:48:30;;;;;;;0.90;0.70;;;;;;;24.33;40.28;99418.13;5129420;28;20134;-63
2022/11/03 04:50:59;;;;;;;0.63;0.60;;;;;;;24.33;40.24;99418.13;5128988;27;20127;-67
2022/11/03 04:53:29;;;;;;;0.65;0.50;;;;;;;24.33;40.24;99411.75;5127430;27;20039;-63
2022/11/03 04:55:54;;;;;;;1.00;0.60;;;;;;;24.35;40.07;99406.56;5128548;27;20050;-67
2022/11/03 04:58:25;;;;;;;1.90;0.70;;;;;;;24.34;40.24;99396.56;5108443;27;20035;-67
2022/11/03 05:00:52;;;;;;;1.00;0.60;;;;;;;24.35;40.31;99403.75;5122774;27;20459;-67
2022/11/03 05:03:24;;;;;;;1.10;0.65;;;;;;;24.33;40.23;99395.78;5114678;27;20545;-63
2022/11/03 05:05:50;;;;;;;0.85;0.65;;;;;;;24.35;40.04;99393.38;5128685;27;20043;-63
2022/11/03 05:08:20;;;;;;;0.90;0.60;;;;;;;24.36;40.38;99394.16;5129792;28;20047;-66
2022/11/03 05:10:47;;;;;;;0.70;0.50;;;;;;;24.35;40.30;99389.78;5110509;28;20047;-63
2022/11/03 05:13:24;;;;;;;0.63;0.50;;;;;;;24.33;40.27;99379.00;5125491;27;20036;-63
2022/11/03 05:15:51;;;;;;;0.70;0.60;;;;;;;24.37;40.16;99379.00;5128576;27;20045;-66
2022/11/03 05:18:21;;;;;;;0.85;0.65;;;;;;;24.34;40.46;99374.22;5120864;27;20071;-67
2022/11/03 05:20:53;;;;;;;1.10;0.80;;;;;;;24.36;40.30;99367.03;5129675;27;20079;-67
2022/11/03 05:23:20;;;;;;;;;;;;;;;24.41;40.06;99369.41;5125138;28;20047;-67
2022/11/03 05:25:57;;;;;;;0.75;0.57;;;;;;;24.39;40.05;99371.81;5124266;27;20301;-63
2022/11/03 05:28:39;;;;;;;0.90;0.63;;;;;;;24.38;39.95;99349.84;5124077;27;20076;-68
2022/11/03 05:31:25;;;;;;;0.97;0.70;;;;;;;24.36;40.05;99344.66;5128238;28;20092;-67
2022/11/03 05:33:52;;;;;;;1.20;0.70;;;;;;;24.37;40.23;99342.66;5113712;27;20124;-63
2022/11/03 05:36:21;;;;;;;0.80;0.55;;;;;;;24.36;40.14;99338.25;5127633;27;20129;-66
2022/11/03 05:38:47;;;;;;;0.50;0.50;;;;;;;24.37;39.91;99326.69;5129385;27;20035;-62
2022/11/03 05:41:22;;;;;;;1.00;0.73;;;;;;;24.37;40.13;99325.91;5123865;27;20089;-66
2022/11/03 05:44:01;;;;;;;0.55;0.52;;;;;;;24.37;39.83;99311.91;5120069;27;20043;-62
2022/11/03 05:46:32;;;;;;;1.05;0.80;;;;;;;24.38;40.04;99313.50;5120665;27;20047;-62
2022/11/03 05:49:01;;;;;;;1.10;0.80;;;;;;;24.38;40.13;99321.91;5129812;27;20058;-65
2022/11/03 05:51:36;;;;;;;0.63;0.60;;;;;;;24.38;39.99;99299.53;5121179;27;20035;-62
2022/11/03 05:54:05;;;;;;;0.93;0.60;;;;;;;24.38;39.92;99321.91;5121573;27;20118;-66
2022/11/03 05:56:32;;;;;;;0.90;0.70;;;;;;;24.39;39.86;99313.09;5130631;27;20041;-66
2022/11/03 05:58:59;;;;;;;0.73;0.50;;;;;;;24.38;39.83;99314.31;5131619;27;20541;-66
2022/11/03 06:01:29;;;;;;;0.82;0.70;;;;;;;24.42;39.83;99317.88;5131457;27;20051;-62
2022/11/03 06:03:58;;;;;;;1.08;0.80;;;;;;;24.42;39.88;99305.91;5131843;27;20537;-65
2022/11/03 06:06:28;;;;;;;0.82;0.57;;;;;;;24.46;39.83;99303.13;5131546;27;20534;-62
2022/11/03 06:08:55;;;;;;;0.60;0.60;;;;;;;24.46;39.98;99309.50;5131780;27;20555;-65
2022/11/03 06:11:39;;;;;;;0.93;0.65;;;;;;;24.46;39.64;99297.53;5117004;27;20047;-63
2022/11/03 06:14:25;;;;;;;1.13;0.60;;;;;;;24.50;39.75;99315.88;5131233;27;20103;-62
2022/11/03 06:17:00;;;;;;;0.82;0.52;;;;;;;24.52;39.44;99301.50;5125310;27;20046;-66
2022/11/03 06:19:34;;;;;;;0.85;0.65;;;;;;;24.52;39.87;99293.13;5131589;27;20031;-65
2022/11/03 06:22:23;;;;;;;0.73;0.60;;;;;;;24.51;39.96;99297.91;5128165;28;20492;-66
2022/11/03 06:24:50;;;;;;;1.20;0.77;;;;;;;24.53;39.68;99300.31;5126895;27;20031;-65
2022/11/03 06:27:21;;;;;;;1.20;0.70;;;;;;;24.53;39.54;99292.72;5112598;28;20039;-63
2022/11/03 06:29:49;;;;;;;1.02;0.73;;;;;;;24.54;39.88;99297.09;5128441;28;20403;-62
2022/11/03 06:32:15;;;;;;;3.00;0.65;;;;;;;24.55;39.83;99295.91;5127160;27;20046;-62
2022/11/03 06:34:49;;;;;;;0.80;0.60;;;;;;;24.57;39.52;99289.88;5131662;28;20039;-62
2022/11/03 06:37:24;;;;;;;0.70;0.60;;;;;;;24.57;39.52;99285.09;5130137;27;20040;-62
2022/11/03 06:39:52;;;;;;;1.25;0.70;;;;;;;24.58;39.63;99283.13;5123002;27;20035;-65
2022/11/03 06:42:20;;;;;;;3.58;1.50;;;;;;;24.59;39.90;99276.31;5119333;27;20050;-68
2022/11/03 06:44:49;;;;;;;1.85;1.33;;;;;;;24.60;40.30;99283.50;5113810;28;20039;-65
2022/11/03 06:47:23;;;;;;;44.40;3.33;;;;;;;24.61;40.16;99283.09;5123865;27;20039;-62
2022/11/03 06:49:51;;;;;;;24.85;3.38;;;;;;;24.65;40.00;99297.88;5130996;27;20096;-66
2022/11/03 06:52:36;;;;;;;24.13;2.47;;;;;;;24.66;40.03;99302.28;5131297;27;20047;-67
2022/11/03 06:55:10;;;;;;;18.25;2.30;;;;;;;24.68;40.33;99294.25;5131683;28;20047;-65
2022/11/03 06:57:38;;;;;;;14.93;2.40;;;;;;;24.68;40.07;99294.25;5131016;28;20042;-65
2022/11/03 07:00:25;;;;;;;27.20;2.63;;;;;;;24.70;39.90;99297.44;5127100;27;20043;-66
2022/11/03 07:03:26;;;;;;;18.42;2.83;;;;;;;24.73;39.93;99295.06;5124580;27;20046;-66
2022/11/03 07:05:59;;;;;;;14.63;2.20;;;;;;;24.73;39.89;99283.88;5109615;28;20085;-65
2022/11/03 07:08:33;;;;;;;9.80;2.05;;;;;;;24.67;40.01;99281.47;5124158;27;20045;-67
2022/11/03 07:11:03;;;;;;;14.32;2.08;;;;;;;24.70;39.86;99291.84;5128380;28;20043;-66
2022/11/03 07:13:31;;;;;;;12.45;1.77;;;;;;;24.67;39.91;99292.66;5116124;27;20418;-66
2022/11/03 07:15:57;;;;;;;12.73;2.38;;;;;;;24.64;39.86;99292.66;5127437;27;20051;-65
2022/11/03 07:18:28;;;;;;;7.43;1.73;;;;;;;24.69;39.83;99301.44;5117534;27;20108;-65
2022/11/03 07:20:54;;;;;;;13.20;1.90;;;;;;;24.69;39.75;99292.25;5116817;27;20084;-67
2022/11/03 07:23:28;;;;;;;8.63;2.17;;;;;;;24.66;39.86;99285.50;5130386;27;20043;-66
2022/11/03 07:25:57;;;;;;;9.30;2.10;;;;;;;24.65;39.89;99283.09;5129805;27;20456;-68
2022/11/03 07:28:33;;;;;;;8.88;2.22;;;;;;;24.65;39.92;99289.50;5128625;27;20047;-68
2022/11/03 07:31:01;;;;;;;10.10;1.83;;;;;;;24.66;39.81;99284.69;5118963;27;20501;-66
2022/11/03 07:33:30;;;;;;;6.95;1.85;;;;;;;24.65;39.86;99283.09;5113502;27;20052;-66
2022/11/03 07:35:57;;;;;;;3.95;1.50;;;;;;;24.66;39.76;99284.69;5117591;27;20052;-65
2022/11/03 07:38:25;;;;;;;3.85;1.63;;;;;;;24.64;39.54;99281.47;5101086;28;20046;-65
2022/11/03 07:40:52;;;;;;;4.25;1.70;;;;;;;24.64;39.92;99285.06;5122231;27;20042;-66
2022/11/03 07:43:21;;;;;;;5.72;1.85;;;;;;;24.64;39.67;99273.09;5109167;27;20055;-65
2022/11/03 07:45:54;;;;;;;4.97;1.63;;;;;;;24.65;39.58;99285.91;5119049;27;20134;-66
2022/11/03 07:48:24;;;;;;;2.25;1.58;;;;;;;24.65;39.82;99291.50;5125426;27;20456;-65
2022/11/03 07:50:55;;;;;;;4.47;1.60;;;;;;;24.64;39.63;99284.28;5107200;27;20052;-66
2022/11/03 07:53:39;;;;;;;6.28;2.60;;;;;;;24.56;37.98;99291.88;5104887;28;20040;-67
2022/11/03 07:56:22;;;;;;;6.78;3.60;;;;;;;24.36;37.25;99296.31;5121149;27;20511;-67
2022/11/03 07:58:59;;;;;;;7.38;4.30;;;;;;;24.19;36.76;99305.50;5119978;27;20036;-67
2022/11/03 08:01:35;;;;;;;6.63;3.88;;;;;;;23.99;37.22;99308.69;5127769;27;20531;-72
2022/11/03 08:04:04;;;;;;;5.30;3.08;;;;;;;23.95;37.98;99302.31;5127922;27;20047;-75
2022/11/03 08:06:30;;;;;;;5.90;2.60;;;;;;;23.99;38.50;99286.34;5119133;27;20032;-75
2022/11/03 08:08:58;;;;;;;5.13;2.50;;;;;;;24.05;38.74;99276.38;5118578;27;20043;-67
2022/11/03 08:11:24;;;;;;;4.25;2.22;;;;;;;24.12;38.96;99279.16;5116327;27;20039;-71
2022/11/03 08:13:50;;;;;;;5.75;2.95;;;;;;;24.16;38.83;99284.75;5117079;27;20043;-73
2022/11/03 08:16:16;;;;;;;5.32;2.55;;;;;;;24.21;39.17;99281.53;5093440;27;20066;-65
2022/11/03 08:18:42;;;;;;;3.78;2.67;;;;;;;24.28;39.02;99283.53;5118945;27;20403;-74
2022/11/03 08:21:07;;;;;;;3.63;2.28;;;;;;;24.31;38.74;99279.94;5105349;28;20416;-67
2022/11/03 08:23:32;;;;;;;4.78;2.33;;;;;;;24.34;38.98;99260.38;5125924;28;20119;-71
2022/11/03 08:25:58;;;;;;;4.32;2.30;;;;;;;24.37;38.99;99264.41;5124264;27;20074;-67
2022/11/03 08:28:24;;;;;;;5.05;2.35;;;;;;;24.39;39.17;99270.38;5126946;28;20506;-69
2022/11/03 08:30:50;;;;;;;4.40;2.25;;;;;;;24.41;39.09;99257.56;5121251;27;20515;-74
2022/11/03 08:33:15;;;;;;;7.35;2.50;;;;;;;24.45;39.12;99259.59;5101937;28;20045;-70
2022/11/03 08:35:41;;;;;;;3.40;1.95;;;;;;;24.47;39.16;99248.78;5118071;28;20042;-69
2022/11/03 08:38:06;;;;;;;4.53;2.42;;;;;;;24.48;39.03;99242.00;5102044;28;20047;-65
2022/11/03 08:40:32;;;;;;;3.25;2.00;;;;;;;24.51;39.28;99253.19;5121626;27;20066;-66
2022/11/03 08:42:57;;;;;;;4.10;2.00;;;;;;;24.50;38.99;99231.19;5118158;28;20460;-66
2022/11/03 08:45:23;;;;;;;3.03;2.00;;;;;;;24.50;38.97;99220.81;5121634;27;20465;-71
2022/11/03 08:47:48;;;;;;;3.45;2.10;;;;;;;24.56;39.67;99213.59;5122345;27;20491;-67
2022/11/03 08:50:14;;;;;;;4.78;2.15;;;;;;;24.60;39.43;99217.19;5128725;28;20043;-63
2022/11/03 08:52:39;;;;;;;3.47;1.73;;;;;;;24.61;39.42;99202.00;5123176;27;20169;-64
2022/11/03 08:55:05;;;;;;;2.95;1.83;;;;;;;24.63;39.63;99202.38;5124015;27;20129;-67
2022/11/03 08:57:33;;;;;;;5.28;2.10;;;;;;;24.63;39.64;99190.41;5125483;28;20700;-72
2022/11/03 08:59:59;;;;;;;2.42;1.90;;;;;;;24.64;39.69;99183.59;5126709;27;20049;-66
2022/11/03 09:02:24;;;;;;;2.55;1.85;;;;;;;24.63;39.59;99177.22;5130609;28;20043;-70
2022/11/03 09:04:49;;;;;;;3.25;2.00;;;;;;;24.65;39.49;99188.00;5126365;27;20047;-66
2022/11/03 09:07:15;;;;;;;3.10;1.83;;;;;;;24.66;39.71;99190.41;5130805;27;20042;-66
2022/11/03 09:09:40;;;;;;;8.10;2.33;;;;;;;24.67;39.30;99191.19;5131955;27;20043;-71
2022/11/03 09:12:06;;;;;;;2.95;1.70;;;;;;;24.66;39.43;99173.63;5132035;28;20050;-67
2022/11/03 09:14:31;;;;;;;6.38;2.20;;;;;;;24.65;39.71;99177.63;5117174;27;20046;-70
2022/11/03 09:16:56;;;;;;;3.92;1.83;;;;;;;24.66;39.39;99154.03;5128611;27;20406;-71
2022/11/03 09:19:24;;;;;;;2.60;1.98;;;;;;;24.66;39.85;99154.03;5127713;27;20414;-72
2022/11/03 09:21:51;;;;;;;3.03;1.80;;;;;;;24.66;39.49;99159.63;5111704;28;20043;-71
2022/11/03 09:24:16;;;;;;;2.33;1.95;;;;;;;24.67;39.79;99155.63;5125747;28;20054;-68
2022/11/03 09:26:41;;;;;;;2.67;2.03;;;;;;;24.69;39.66;99142.03;5122166;27;20044;-66
2022/11/03 09:29:07;;;;;;;2.60;2.00;;;;;;;24.67;39.45;99136.06;5122285;27;20044;-69
2022/11/03 09:31:32;;;;;;;5.63;2.13;;;;;;;24.67;39.80;99140.84;5103237;27;20097;-70
2022/11/03 09:33:58;;;;;;;2.28;1.60;;;;;;;24.67;40.00;99113.69;5123616;28;20110;-71
2022/11/03 09:36:23;;;;;;;3.13;1.98;;;;;;;24.71;39.89;99120.03;5086440;28;20040;-67
2022/11/03 09:38:49;;;;;;;2.20;1.85;;;;;;;24.72;39.96;99112.47;5119083;27;20523;-72
2022/11/03 09:41:18;;;;;;;7.97;2.00;;;;;;;24.77;39.87;99105.63;5124664;27;20410;-68
2022/11/03 09:43:44;;;;;;;2.67;1.80;;;;;;;24.81;39.72;99107.19;5131233;28;20057;-68
2022/11/03 09:46:11;;;;;;;3.00;1.65;;;;;;;24.81;39.78;99101.59;5121918;27;20043;-71
2022/11/03 09:48:37;;;;;;;4.75;1.83;;;;;;;24.86;39.77;99100.34;5121236;27;20080;-72
2022/11/03 09:51:02;;;;;;;3.60;2.03;;;;;;;24.86;39.80;99098.38;5105415;28;20422;-64
2022/11/03 09:53:29;;;;;;;2.28;1.70;;;;;;;24.87;40.05;99076.78;5119371;27;20039;-66
2022/11/03 09:55:54;;;;;;;3.10;2.00;;;;;;;24.90;40.38;99065.56;5129597;27;20043;-65
2022/11/03 09:58:20;;;;;;;6.72;1.90;;;;;;;24.90;39.96;99073.97;5127465;27;20096;-65
2022/11/03 10:00:46;;;;;;;2.65;1.80;;;;;;;24.86;39.92;99064.81;5129964;28;20372;-66
2022/11/03 10:03:14;;;;;;;4.95;2.50;;;;;;;24.86;40.09;99059.22;5124758;27;20407;-68
2022/11/03 10:05:42;;;;;;;3.70;2.13;;;;;;;24.87;39.93;99060.00;5119980;27;20047;-65
2022/11/03 10:08:22;;;;;;;6.53;2.40;;;;;;;24.84;39.63;99052.41;5118310;27;20087;-63
2022/11/03 10:10:48;;;;;;;6.13;2.42;;;;;;;24.82;39.72;99063.25;5113019;28;20039;-67
2022/11/03 10:13:32;;;;;;;3.85;2.40;;;;;;;24.78;40.22;99054.84;5123321;27;20039;-65
2022/11/03 10:16:00;;;;;;;5.25;2.15;;;;;;;24.83;40.28;99056.44;5121803;27;20107;-69
2022/11/03 10:18:27;;;;;;;149.70;25.55;;;;;;;24.86;40.63;99064.00;5119285;27;20368;-65
2022/11/03 10:20:53;;;;;;;47.55;10.73;;;;;;;24.94;40.57;99060.75;5118260;27;20500;-66
2022/11/03 10:23:18;;;;;;;57.72;10.88;;;;;;;25.01;40.90;99073.88;5120769;27;20525;-61
2022/11/03 10:25:44;;;;;;;34.90;8.73;;;;;;;25.01;41.12;99073.88;5092873;28;20477;-59
2022/11/03 10:28:16;;;;;;;32.88;8.00;;;;;;;25.02;41.04;99083.06;5127370;27;20043;-58
2022/11/03 10:30:53;;;;;;;30.27;7.22;;;;;;;24.99;40.71;99067.88;5121556;27;20229;-70
2022/11/03 10:33:30;;;;;;;29.42;6.20;;;;;;;25.01;41.23;99092.69;5116520;27;20507;-58
2022/11/03 10:35:58;;;;;;;22.83;6.03;;;;;;;25.00;40.91;99077.88;5122541;27;20453;-69
2022/11/03 10:38:31;;;;;;;15.93;5.03;;;;;;;24.98;40.65;99071.91;5117799;27;20039;-58
2022/11/03 10:41:13;;;;;;;14.30;5.15;;;;;;;25.02;40.91;99071.88;5121794;27;20086;-59
2022/11/03 10:43:40;;;;;;;16.05;4.47;;;;;;;25.02;41.12;99069.09;5123352;27;20096;-69
2022/11/03 10:46:18;;;;;;;12.25;3.90;;;;;;;25.02;40.86;99071.88;5114710;27;20047;-70
2022/11/03 10:48:43;;;;;;;14.48;3.72;;;;;;;25.04;41.42;99050.69;5124690;27;20452;-58
2022/11/03 10:51:11;;;;;;;14.68;3.70;;;;;;;25.08;41.10;99048.69;5124632;27;20050;-70
2022/11/03 10:53:38;;;;;;;14.38;3.78;;;;;;;25.09;41.59;99055.06;5131404;27;20452;-70
2022/11/03 10:56:04;;;;;;;10.00;3.20;;;;;;;25.09;41.48;99043.88;5124851;27;20048;-58
2022/11/03 10:58:31;;;;;;;10.45;3.15;;;;;;;25.10;41.76;99056.66;5119661;27;20046;-72
2022/11/03 11:00:56;;;;;;;10.23;3.22;;;;;;;25.10;41.78;99065.06;5116495;27;20058;-59
2022/11/03 11:03:22;;;;;;;8.57;3.05;;;;;;;25.09;41.75;99052.28;5123437;27;20047;-58
2022/11/03 11:05:48;;;;;;;9.70;3.42;;;;;;;25.12;41.72;99059.81;5124996;27;20065;-59
2022/11/03 11:08:19;;;;;;;8.68;3.28;;;;;;;25.15;42.09;99042.22;5129707;27;20498;-69
2022/11/03 11:10:45;;;;;;;10.07;2.67;;;;;;;25.16;41.99;99044.59;5118398;28;20043;-68
2022/11/03 11:13:25;;;;;;;7.10;2.67;;;;;;;25.19;42.37;99045.78;5119616;27;20050;-68
2022/11/03 11:15:53;;;;;;;6.55;3.00;;;;;;;25.19;42.12;99029.78;5117017;27;20126;-68
2022/11/03 11:18:28;;;;;;;6.28;2.60;;;;;;;25.18;42.11;99027.38;5123379;27;20051;-65
2022/11/03 11:20:59;;;;;;;4.45;2.30;;;;;;;25.13;42.30;99017.44;5116422;27;20067;-58
2022/11/03 11:23:27;;;;;;;11.57;2.88;;;;;;;25.10;42.53;99007.06;5118780;27;20077;-58
2022/11/03 11:26:08;;;;;;;7.70;2.25;;;;;;;25.10;42.13;99000.69;5126510;27;20043;-64
2022/11/03 11:28:41;;;;;;;6.05;2.40;;;;;;;25.06;42.13;98995.09;5121619;27;20548;-58
2022/11/03 11:31:21;;;;;;;10.35;2.40;;;;;;;25.05;42.44;98987.13;5130591;27;20073;-61
2022/11/03 11:33:48;;;;;;;4.22;2.13;;;;;;;25.03;42.22;98976.31;5123802;27;20036;-69
2022/11/03 11:36:23;;;;;;;5.70;2.38;;;;;;;25.01;42.22;98975.16;5126008;27;20126;-60
2022/11/03 11:38:48;;;;;;;3.08;1.98;;;;;;;24.98;42.50;98985.16;5122078;27;20047;-70
2022/11/03 11:41:14;;;;;;;3.90;1.90;;;;;;;24.94;42.22;98979.59;5127615;27;20046;-70
2022/11/03 11:43:39;;;;;;;6.38;2.35;;;;;;;24.92;42.39;98968.00;5103732;27;20415;-70
2022/11/03 11:46:38;;;;;;;5.75;2.20;;;;;;;24.88;42.34;98956.09;5130567;27;20039;-61
2022/11/03 11:49:04;;;;;;;5.43;2.00;;;;;;;24.88;42.51;98953.28;5131230;27;20083;-70
2022/11/03 11:51:39;;;;;;;2.90;1.95;;;;;;;24.86;42.29;98946.50;5122322;27;20900;-72
2022/11/03 11:54:12;;;;;;;4.50;2.10;;;;;;;24.84;42.56;98946.91;5127352;27;20514;-61
2022/11/03 11:56:42;;;;;;;4.05;2.03;;;;;;;24.83;42.26;98948.13;5117880;27;20047;-71
2022/11/03 11:59:16;;;;;;;3.05;1.83;;;;;;;24.82;42.58;98951.34;5121448;27;21218;-61
2022/11/03 12:01:42;;;;;;;2.95;1.88;;;;;;;24.77;42.37;98921.81;5125881;27;20154;-61